Time;durP1;ratioP1;P1;durP2;ratioP2;P2;SDS_P1;SDS_P2;PMS_P1;PMS_P2;Temp;Humidity;BMP_temperature;BMP_pressure;BME280_temperature;BME280_humidity;BME280_pressure;Samples;Min_cycle;Max_cycle;Signal;HPM_P1;HPM_P2
2022/10/19 00:01:46;;;;;;;5.32;2.88;;;;;;;6.47;100.00;102864.16;5077846;28;20086;-68
2022/10/19 00:04:11;;;;;;;6.45;2.80;;;;;;;6.32;100.00;102867.00;5080084;28;20569;-68
2022/10/19 00:06:37;;;;;;;23.13;4.43;;;;;;;6.27;100.00;102864.41;5074816;28;20036;-68
2022/10/19 00:09:09;;;;;;;18.98;4.63;;;;;;;6.12;100.00;102868.13;5072707;28;20039;-68
2022/10/19 00:11:38;;;;;;;15.07;4.43;;;;;;;6.16;100.00;102871.63;5079582;28;20251;-68
2022/10/19 00:14:05;;;;;;;19.33;4.13;;;;;;;6.31;100.00;102866.13;5079762;28;20032;-68
2022/10/19 00:16:33;;;;;;;20.05;4.03;;;;;;;6.23;100.00;102868.03;5074773;28;20043;-67
2022/10/19 00:19:04;;;;;;;25.58;4.43;;;;;;;6.20;100.00;102863.63;5080079;28;20043;-69
2022/10/19 00:21:30;;;;;;;15.27;4.22;;;;;;;6.19;100.00;102866.31;5056118;28;20036;-67
2022/10/19 00:23:56;;;;;;;27.38;3.53;;;;;;;6.12;100.00;102869.91;5071431;28;20121;-68
2022/10/19 00:26:21;;;;;;;35.55;4.55;;;;;;;6.20;100.00;102868.03;5080537;28;20037;-67
2022/10/19 00:28:48;;;;;;;42.50;4.63;;;;;;;6.18;100.00;102862.78;5080323;28;20040;-68
2022/10/19 00:31:16;;;;;;;44.92;5.25;;;;;;;6.06;100.00;102859.38;5080364;28;20762;-67
2022/10/19 00:33:45;;;;;;;66.15;5.38;;;;;;;5.98;100.00;102862.16;5079804;28;20054;-68
2022/10/19 00:36:20;;;;;;;42.95;5.07;;;;;;;5.88;100.00;102858.69;5078497;28;20032;-68
2022/10/19 00:38:46;;;;;;;52.78;4.60;;;;;;;5.86;100.00;102857.81;5077360;28;20858;-69
2022/10/19 00:41:13;;;;;;;19.80;4.40;;;;;;;5.72;100.00;102844.75;5076663;28;20047;-68
2022/10/19 00:43:58;;;;;;;19.60;4.20;;;;;;;5.70;100.00;102857.09;5078316;28;20032;-69
2022/10/19 00:46:25;;;;;;;17.15;4.00;;;;;;;5.75;100.00;102851.75;5079699;28;20481;-69
2022/10/19 00:48:58;;;;;;;16.67;3.40;;;;;;;5.78;100.00;102854.41;5080550;28;20032;-68
2022/10/19 00:51:27;;;;;;;13.10;3.85;;;;;;;5.91;100.00;102850.72;5075565;28;20040;-68
2022/10/19 00:53:53;;;;;;;31.35;4.93;;;;;;;5.91;100.00;102850.72;5078742;28;20131;-69
2022/10/19 00:56:18;;;;;;;29.40;5.32;;;;;;;5.95;100.00;102847.16;5074222;28;20044;-68
2022/10/19 00:58:44;;;;;;;8.07;4.43;;;;;;;6.06;100.00;102847.03;5077648;28;20051;-68
2022/10/19 01:01:15;;;;;;;12.60;5.00;;;;;;;5.95;100.00;102851.56;5078127;28;20381;-68
2022/10/19 01:03:40;;;;;;;22.58;4.50;;;;;;;5.93;100.00;102848.09;5074224;28;20501;-67
2022/10/19 01:06:07;;;;;;;23.25;4.00;;;;;;;5.83;100.00;102846.41;5073068;28;20027;-67
2022/10/19 01:08:32;;;;;;;13.80;4.00;;;;;;;5.63;100.00;102850.13;5070763;28;20039;-68
2022/10/19 01:11:46;;;;;;;27.50;4.80;;;;;;;5.75;100.00;102846.47;5067402;28;20068;-68
2022/10/19 01:14:20;;;;;;;18.65;5.18;;;;;;;5.83;100.00;102841.09;5063677;28;20592;-68
2022/10/19 01:16:55;;;;;;;20.38;4.57;;;;;;;5.88;100.00;102841.94;5075051;28;20681;-68
2022/10/19 01:19:45;;;;;;;11.65;4.70;;;;;;;5.80;100.00;102834.06;5071126;28;21256;-68
2022/10/19 01:22:32;;;;;;;6.47;3.80;;;;;;;5.80;100.00;102843.78;5071184;28;20044;-68
2022/10/19 01:25:16;;;;;;;21.92;4.75;;;;;;;5.63;100.00;102838.69;5071157;28;20593;-68
2022/10/19 01:28:04;;;;;;;14.60;4.45;;;;;;;5.40;100.00;102836.25;5077789;28;20165;-70
2022/10/19 01:30:53;;;;;;;8.05;4.20;;;;;;;5.40;100.00;102831.84;5065708;28;20539;-68
2022/10/19 01:33:30;;;;;;;90.10;7.47;;;;;;;5.38;100.00;102835.41;5074579;28;20051;-68
2022/10/19 01:35:59;;;;;;;31.88;4.72;;;;;;;5.33;100.00;102835.44;5072995;28;20036;-67
2022/10/19 01:38:33;;;;;;;53.25;5.78;;;;;;;5.38;100.00;102835.41;5074080;28;20071;-68
2022/10/19 01:41:16;;;;;;;16.88;3.97;;;;;;;5.46;100.00;102833.53;5077300;28;20032;-68
2022/10/19 01:43:54;;;;;;;14.18;4.20;;;;;;;5.45;100.00;102826.50;5073735;28;20046;-68
2022/10/19 01:46:37;;;;;;;10.43;3.80;;;;;;;5.48;100.00;102829.13;5076896;28;20036;-68
2022/10/19 01:49:30;;;;;;;7.72;3.88;;;;;;;5.48;100.00;102823.84;5082170;28;20084;-68
2022/10/19 01:51:59;;;;;;;10.25;4.00;;;;;;;5.42;100.00;102823.88;5070302;28;20921;-68
2022/10/19 01:54:29;;;;;;;17.55;3.88;;;;;;;5.43;100.00;102818.59;5086041;28;20036;-68
2022/10/19 01:56:59;;;;;;;10.57;3.70;;;;;;;5.43;100.00;102812.44;5082382;28;20591;-67
2022/10/19 01:59:25;;;;;;;38.70;4.38;;;;;;;5.32;100.00;102815.19;5073375;28;20047;-68
2022/10/19 02:01:53;;;;;;;34.53;5.13;;;;;;;5.24;100.00;102816.13;5084183;28;20032;-67
2022/10/19 02:04:21;;;;;;;36.30;4.60;;;;;;;5.18;100.00;102815.31;5079612;28;20538;-68
2022/10/19 02:06:49;;;;;;;19.52;4.28;;;;;;;5.10;100.00;102814.47;5078872;28;20051;-68
2022/10/19 02:09:17;;;;;;;8.93;3.35;;;;;;;5.00;100.00;102819.88;5079002;28;20082;-67
2022/10/19 02:11:46;;;;;;;15.13;3.80;;;;;;;4.86;100.00;102814.69;5078512;28;20050;-67
2022/10/19 02:14:15;;;;;;;19.05;3.72;;;;;;;5.00;100.00;102810.16;5079821;28;20046;-67
2022/10/19 02:16:58;;;;;;;14.63;4.55;;;;;;;4.98;100.00;102809.31;5074578;28;20039;-67
2022/10/19 02:19:24;;;;;;;17.65;4.38;;;;;;;5.03;100.00;102806.63;5071438;28;20032;-68
2022/10/19 02:21:50;;;;;;;23.30;4.53;;;;;;;5.01;100.00;102806.63;5080530;28;20038;-68
2022/10/19 02:24:16;;;;;;;26.48;4.85;;;;;;;5.08;100.00;102807.47;5090839;28;20162;-67
2022/10/19 02:26:42;;;;;;;14.35;4.65;;;;;;;5.08;100.00;102807.47;5075418;28;20688;-68
2022/10/19 02:29:10;;;;;;;15.93;4.95;;;;;;;5.21;100.00;102809.09;5078729;28;20032;-67
2022/10/19 02:31:36;;;;;;;18.42;5.60;;;;;;;5.19;100.00;102810.88;5078808;28;20126;-67
2022/10/19 02:34:02;;;;;;;20.23;4.57;;;;;;;5.17;100.00;102797.69;5081492;28;20486;-67
2022/10/19 02:36:27;;;;;;;31.42;6.10;;;;;;;5.24;100.00;102800.28;5076108;28;20040;-66
2022/10/19 02:38:53;;;;;;;41.47;5.72;;;;;;;5.20;100.00;102804.69;5077519;28;20477;-68
2022/10/19 02:41:43;;;;;;;23.70;4.93;;;;;;;4.68;100.00;102813.94;5081826;28;20035;-68
2022/10/19 02:44:32;;;;;;;33.13;4.00;;;;;;;4.62;100.00;102818.41;5078163;28;20554;-67
2022/10/19 02:47:06;;;;;;;10.90;4.55;;;;;;;4.47;100.00;102806.19;5077185;28;20040;-68
2022/10/19 02:49:34;;;;;;;14.30;4.03;;;;;;;4.81;100.00;102805.91;5080374;28;20032;-68
2022/10/19 02:52:02;;;;;;;19.58;4.35;;;;;;;4.81;100.00;102806.78;5081812;28;20027;-68
2022/10/19 02:54:28;;;;;;;31.83;5.88;;;;;;;4.83;100.00;102812.09;5081028;28;20039;-67
2022/10/19 02:56:54;;;;;;;30.48;5.40;;;;;;;4.86;100.00;102809.41;5081509;28;20036;-68
2022/10/19 02:59:20;;;;;;;30.25;5.40;;;;;;;4.92;100.00;102806.72;5088760;28;20840;-69
2022/10/19 03:01:46;;;;;;;51.78;5.68;;;;;;;5.10;100.00;102808.31;5076196;28;20915;-68
2022/10/19 03:04:12;;;;;;;30.98;6.20;;;;;;;5.28;100.00;102807.28;5080732;28;20052;-68
2022/10/19 03:06:37;;;;;;;55.22;6.07;;;;;;;5.27;100.00;102803.78;5068411;28;20032;-69
2022/10/19 03:09:03;;;;;;;45.70;6.22;;;;;;;5.25;100.00;102808.19;5076086;28;20032;-68
2022/10/19 03:11:28;;;;;;;33.42;5.57;;;;;;;5.06;100.00;102803.94;5074245;28;20039;-68
2022/10/19 03:13:53;;;;;;;53.58;5.82;;;;;;;5.16;100.00;102808.25;5059024;28;20036;-69
2022/10/19 03:16:19;;;;;;;29.92;5.53;;;;;;;5.09;100.00;102802.16;5081659;28;20039;-69
2022/10/19 03:18:47;;;;;;;10.68;5.47;;;;;;;4.93;100.00;102798.78;5075452;28;20047;-68
2022/10/19 03:21:13;;;;;;;44.90;6.28;;;;;;;5.12;100.00;102801.25;5080958;28;20123;-68
2022/10/19 03:23:38;;;;;;;32.83;5.70;;;;;;;5.05;100.00;102789.84;5080912;28;20676;-67
2022/10/19 03:26:06;;;;;;;19.25;5.50;;;;;;;5.08;100.00;102805.69;5074192;28;20484;-68
2022/10/19 03:28:31;;;;;;;13.63;5.35;;;;;;;5.05;100.00;102796.91;5075360;28;20037;-68
2022/10/19 03:30:57;;;;;;;20.88;5.63;;;;;;;4.93;100.00;102797.91;5080376;28;20028;-68
2022/10/19 03:33:22;;;;;;;12.65;5.10;;;;;;;4.90;100.00;102780.28;5073760;28;20048;-67
2022/10/19 03:35:48;;;;;;;27.67;5.82;;;;;;;4.72;100.00;102793.66;5080913;28;20139;-68
2022/10/19 03:38:15;;;;;;;15.88;5.82;;;;;;;4.76;100.00;102794.50;5076003;28;20480;-68
2022/10/19 03:40:40;;;;;;;28.80;6.00;;;;;;;4.87;100.00;102795.28;5078520;28;20122;-68
2022/10/19 03:43:06;;;;;;;26.15;6.35;;;;;;;4.98;100.00;102790.81;5082108;28;20117;-68
2022/10/19 03:45:31;;;;;;;38.47;6.55;;;;;;;5.04;100.00;102792.53;5076875;28;20044;-68
2022/10/19 03:47:57;;;;;;;45.17;7.90;;;;;;;4.97;100.00;102785.50;5080409;28;20547;-68
2022/10/19 03:50:22;;;;;;;22.98;5.40;;;;;;;4.91;100.00;102781.16;5080513;28;20766;-68
2022/10/19 03:52:48;;;;;;;9.75;5.57;;;;;;;4.83;100.00;102778.59;5076861;28;20118;-68
2022/10/19 03:55:15;;;;;;;26.38;6.30;;;;;;;4.96;100.00;102776.72;5075330;28;20028;-69
2022/10/19 03:57:41;;;;;;;49.45;7.60;;;;;;;5.06;100.00;102772.22;5080207;28;20054;-68
2022/10/19 04:00:08;;;;;;;56.97;6.95;;;;;;;4.88;100.00;102778.56;5080712;28;20036;-68
2022/10/19 04:02:39;;;;;;;53.85;7.43;;;;;;;5.01;100.00;102785.47;5076009;28;20097;-69
2022/10/19 04:05:05;;;;;;;77.57;7.65;;;;;;;5.09;100.00;102786.28;5077067;28;20546;-68
2022/10/19 04:07:30;;;;;;;75.20;7.82;;;;;;;4.97;100.00;102781.13;5079312;28;20078;-69
2022/10/19 04:09:56;;;;;;;72.60;8.18;;;;;;;5.03;100.00;102777.56;5078593;28;20031;-68
2022/10/19 04:12:21;;;;;;;42.97;6.90;;;;;;;4.91;100.00;102784.69;5076612;28;20097;-69
2022/10/19 04:14:47;;;;;;;28.45;6.63;;;;;;;4.91;100.00;102775.88;5080434;28;20064;-69
2022/10/19 04:17:12;;;;;;;38.97;6.32;;;;;;;4.81;100.00;102780.34;5090102;28;20047;-67
2022/10/19 04:19:39;;;;;;;29.23;6.15;;;;;;;4.86;100.00;102786.47;5079106;28;20035;-69
2022/10/19 04:22:04;;;;;;;26.65;5.63;;;;;;;4.84;100.00;102785.63;5074262;28;20036;-68
2022/10/19 04:24:30;;;;;;;50.55;6.10;;;;;;;4.62;100.00;102766.44;5079219;28;20040;-67
2022/10/19 04:26:55;;;;;;;16.90;5.00;;;;;;;4.49;100.00;102774.47;5073174;28;20027;-69
2022/10/19 04:29:23;;;;;;;33.45;5.50;;;;;;;4.69;100.00;102769.91;5076738;28;20028;-68
2022/10/19 04:31:51;;;;;;;50.20;6.05;;;;;;;4.76;100.00;102768.94;5073609;28;20036;-69
2022/10/19 04:34:16;;;;;;;44.25;7.10;;;;;;;4.71;100.00;102773.41;5062651;28;20032;-68
2022/10/19 04:36:42;;;;;;;24.38;5.75;;;;;;;4.59;100.00;102771.72;5079847;28;20048;-69
2022/10/19 04:39:07;;;;;;;36.70;6.72;;;;;;;4.55;100.00;102774.41;5071638;28;20047;-68
2022/10/19 04:41:33;;;;;;;26.17;5.55;;;;;;;4.61;100.00;102774.34;5073557;28;20039;-68
2022/10/19 04:44:01;;;;;;;39.30;7.43;;;;;;;4.54;100.00;102767.38;5075711;28;20085;-69
2022/10/19 04:46:28;;;;;;;28.10;5.95;;;;;;;4.50;100.00;102766.50;5071232;28;20140;-68
2022/10/19 04:48:56;;;;;;;21.98;6.13;;;;;;;4.53;100.00;102762.97;5099377;27;20105;-69
2022/10/19 04:51:22;;;;;;;10.98;6.13;;;;;;;4.48;100.00;102759.50;5075604;28;20040;-68
2022/10/19 04:53:47;;;;;;;39.25;6.25;;;;;;;4.56;100.00;102766.47;5080395;28;20086;-67
2022/10/19 04:56:17;;;;;;;23.27;6.18;;;;;;;4.62;100.00;102768.22;5072036;28;20039;-68
2022/10/19 04:58:43;;;;;;;35.95;6.82;;;;;;;4.52;100.00;102769.13;5075170;28;20108;-69
2022/10/19 05:01:17;;;;;;;26.33;5.82;;;;;;;4.54;100.00;102775.31;5077025;28;20036;-69
2022/10/19 05:03:42;;;;;;;10.68;4.80;;;;;;;4.47;100.00;102776.22;5077277;28;20059;-69
2022/10/19 05:06:08;;;;;;;16.13;5.63;;;;;;;4.53;100.00;102782.34;5073215;28;20032;-68
2022/10/19 05:08:35;;;;;;;21.10;5.75;;;;;;;4.40;100.00;102786.81;5071367;28;20028;-67
2022/10/19 05:11:06;;;;;;;15.13;4.78;;;;;;;4.43;100.00;102779.78;5074591;28;20032;-66
2022/10/19 05:13:32;;;;;;;9.45;5.15;;;;;;;4.35;100.00;102772.78;5071134;28;20039;-67
2022/10/19 05:15:59;;;;;;;13.60;5.40;;;;;;;4.28;100.00;102784.28;5073132;28;20115;-67
2022/10/19 05:18:25;;;;;;;10.55;5.07;;;;;;;4.21;100.00;102785.19;5075392;28;20040;-68
2022/10/19 05:20:50;;;;;;;11.30;4.95;;;;;;;4.11;100.00;102789.63;5074954;28;20039;-68
2022/10/19 05:23:16;;;;;;;14.63;4.57;;;;;;;4.29;100.00;102783.38;5077248;28;20036;-68
2022/10/19 05:25:41;;;;;;;11.43;4.95;;;;;;;4.26;100.00;102778.09;5069466;28;20137;-67
2022/10/19 05:28:07;;;;;;;7.35;5.05;;;;;;;4.25;100.00;102759.63;5071382;28;20145;-69
2022/10/19 05:30:32;;;;;;;11.80;4.57;;;;;;;4.26;100.00;102764.03;5077444;28;20031;-68
2022/10/19 05:32:58;;;;;;;10.88;4.78;;;;;;;4.25;100.00;102763.16;5074070;28;20043;-68
2022/10/19 05:35:23;;;;;;;23.75;5.28;;;;;;;4.14;100.00;102770.28;5075711;28;20037;-68
2022/10/19 05:37:54;;;;;;;11.75;4.50;;;;;;;4.17;100.00;102780.81;5079510;28;20028;-67
2022/10/19 05:40:19;;;;;;;6.57;4.57;;;;;;;4.11;100.00;102780.84;5082337;28;20039;-68
2022/10/19 05:42:45;;;;;;;5.40;4.90;;;;;;;4.11;100.00;102791.38;5073269;28;20071;-68
2022/10/19 05:45:10;;;;;;;13.98;5.05;;;;;;;4.02;100.00;102792.34;5074401;28;20734;-68
2022/10/19 05:47:35;;;;;;;16.40;5.35;;;;;;;3.85;100.00;102797.66;5072701;28;20492;-68
2022/10/19 05:50:01;;;;;;;14.43;5.03;;;;;;;3.95;100.00;102787.97;5075336;28;20044;-68
2022/10/19 05:52:26;;;;;;;9.40;4.40;;;;;;;3.99;100.00;102786.19;5075189;28;20097;-66
2022/10/19 05:54:52;;;;;;;39.05;6.40;;;;;;;3.90;100.00;102785.34;5070921;28;20046;-68
2022/10/19 05:57:18;;;;;;;19.60;5.18;;;;;;;3.84;100.00;102781.84;5069613;28;20040;-68
2022/10/19 05:59:43;;;;;;;22.15;5.20;;;;;;;3.86;100.00;102790.63;5075095;28;20035;-67
2022/10/19 06:02:12;;;;;;;32.70;5.28;;;;;;;3.87;100.00;102787.13;5077175;28;20141;-67
2022/10/19 06:04:38;;;;;;;20.75;5.20;;;;;;;3.78;100.00;102787.16;5075132;28;20044;-68
2022/10/19 06:07:04;;;;;;;29.38;6.05;;;;;;;3.52;100.00;102787.25;5074008;28;20090;-67
2022/10/19 06:09:34;;;;;;;6.32;4.60;;;;;;;3.28;100.00;102789.06;5071474;28;20033;-67
2022/10/19 06:12:00;;;;;;;15.93;5.18;;;;;;;3.29;100.00;102782.03;5069496;28;20032;-67
2022/10/19 06:14:26;;;;;;;10.77;6.25;;;;;;;3.40;100.00;102782.88;5077103;28;20055;-67
2022/10/19 06:16:51;;;;;;;13.65;6.40;;;;;;;3.75;100.00;102781.88;5071074;28;20044;-67
2022/10/19 06:19:17;;;;;;;7.93;6.00;;;;;;;3.84;100.00;102781.84;5075390;28;20055;-68
2022/10/19 06:21:44;;;;;;;21.20;6.00;;;;;;;3.76;100.00;102786.28;5075040;28;20047;-68
2022/10/19 06:24:10;;;;;;;14.52;5.20;;;;;;;3.66;100.00;102784.56;5069360;28;20077;-68
2022/10/19 06:26:35;;;;;;;17.98;5.70;;;;;;;3.81;100.00;102785.38;5074399;28;20051;-67
2022/10/19 06:29:02;;;;;;;17.13;6.10;;;;;;;3.95;100.00;102787.97;5069780;28;20036;-67
2022/10/19 06:31:34;;;;;;;16.05;4.88;;;;;;;3.72;100.00;102782.78;5076527;28;20036;-67
2022/10/19 06:33:59;;;;;;;9.07;4.82;;;;;;;3.79;100.00;102775.72;5094791;27;20107;-66
2022/10/19 06:36:28;;;;;;;17.77;5.28;;;;;;;3.73;100.00;102784.53;5074986;28;20044;-68
2022/10/19 06:38:55;;;;;;;15.43;5.45;;;;;;;3.72;100.00;102788.06;5078660;28;20040;-67
2022/10/19 06:41:21;;;;;;;11.73;5.85;;;;;;;3.95;100.00;102782.69;5082603;28;20070;-67
2022/10/19 06:43:51;;;;;;;20.45;5.63;;;;;;;3.91;100.00;102786.22;5076224;28;20081;-68
2022/10/19 06:46:19;;;;;;;15.35;5.10;;;;;;;3.85;100.00;102794.16;5081608;28;20243;-68
2022/10/19 06:48:56;;;;;;;8.20;5.20;;;;;;;3.90;100.00;102795.88;5080048;28;20100;-68
2022/10/19 06:51:24;;;;;;;7.07;5.43;;;;;;;3.99;100.00;102799.38;5076299;28;20073;-68
2022/10/19 06:53:49;;;;;;;11.13;5.38;;;;;;;4.27;100.00;102794.84;5079497;28;20435;-67
2022/10/19 06:56:15;;;;;;;16.85;5.65;;;;;;;4.36;100.00;102787.72;5070063;28;20096;-67
2022/10/19 06:58:41;;;;;;;26.27;5.43;;;;;;;4.55;100.00;102788.50;5078383;28;20036;-67
2022/10/19 07:01:08;;;;;;;16.92;5.70;;;;;;;4.34;100.00;102792.16;5075280;28;20677;-68
2022/10/19 07:03:34;;;;;;;29.20;6.95;;;;;;;4.59;100.00;102790.22;5080812;28;20044;-68
2022/10/19 07:06:02;;;;;;;15.40;5.53;;;;;;;4.85;100.00;102778.56;5097621;27;20476;-68
2022/10/19 07:08:30;;;;;;;23.40;5.93;;;;;;;4.73;100.00;102783.97;5089708;28;20738;-68
2022/10/19 07:11:00;;;;;;;8.85;5.30;;;;;;;5.04;100.00;102774.88;5080228;28;20405;-68
2022/10/19 07:13:27;;;;;;;8.85;5.07;;;;;;;4.99;100.00;102778.47;5076563;28;20670;-67
2022/10/19 07:16:04;;;;;;;10.30;5.97;;;;;;;5.13;100.00;102780.09;5080066;28;20036;-67
2022/10/19 07:18:30;;;;;;;10.48;7.15;;;;;;;5.46;100.00;102780.63;5076295;28;20044;-67
2022/10/19 07:20:57;;;;;;;9.48;6.75;;;;;;;5.62;100.00;102778.69;5079327;28;20044;-68
2022/10/19 07:23:24;;;;;;;10.05;6.68;;;;;;;5.65;100.00;102779.53;5077942;28;20061;-67
2022/10/19 07:25:52;;;;;;;9.20;6.90;;;;;;;5.83;100.00;102777.56;5074636;28;20572;-67
2022/10/19 07:28:19;;;;;;;14.38;6.53;;;;;;;6.04;100.00;102774.66;5080585;28;20040;-68
2022/10/19 07:30:44;;;;;;;11.10;6.97;;;;;;;6.02;100.00;102771.16;5100769;27;20481;-68
2022/10/19 07:33:10;;;;;;;10.50;6.32;;;;;;;6.10;100.00;102771.94;5064930;28;20039;-69
2022/10/19 07:35:35;;;;;;;9.48;6.75;;;;;;;6.33;100.00;102771.63;5083420;28;20054;-68
2022/10/19 07:38:01;;;;;;;13.30;7.00;;;;;;;6.47;100.00;102777.56;5078786;28;20050;-68
2022/10/19 07:40:27;;;;;;;10.13;7.65;;;;;;;6.67;100.00;102776.38;5074877;28;20579;-68
2022/10/19 07:42:52;;;;;;;10.25;7.32;;;;;;;6.72;100.00;102778.06;5077567;28;20713;-67
2022/10/19 07:45:18;;;;;;;9.48;6.28;;;;;;;6.77;100.00;102778.00;5070933;28;20511;-68
2022/10/19 07:47:43;;;;;;;11.15;7.30;;;;;;;6.95;100.00;102777.69;5077277;28;20047;-68
2022/10/19 07:50:09;;;;;;;13.25;6.63;;;;;;;7.05;100.00;102777.53;5091768;28;20035;-68
2022/10/19 07:52:34;;;;;;;9.90;7.40;;;;;;;7.37;100.00;102782.25;5078050;28;20829;-69
2022/10/19 07:55:00;;;;;;;19.33;8.43;;;;;;;7.28;100.00;102780.66;5075142;28;20042;-68
2022/10/19 07:57:26;;;;;;;14.32;7.32;;;;;;;7.59;100.00;102778.28;5079689;28;20052;-67
2022/10/19 07:59:51;;;;;;;10.98;8.02;;;;;;;7.72;100.00;102781.56;5078592;28;20044;-68
2022/10/19 08:02:17;;;;;;;15.75;8.52;;;;;;;7.57;100.00;102779.22;5074650;28;20093;-68
2022/10/19 08:04:42;;;;;;;14.70;7.38;;;;;;;7.77;100.00;102777.91;5075138;28;20818;-67
2022/10/19 08:07:09;;;;;;;14.82;7.90;;;;;;;7.94;100.00;102776.69;5079799;28;20027;-69
2022/10/19 08:09:34;;;;;;;13.40;7.55;;;;;;;7.97;100.00;102776.63;5077799;28;20036;-69
2022/10/19 08:12:00;;;;;;;10.75;7.43;;;;;;;8.17;100.00;102770.88;5058930;28;20047;-69
2022/10/19 08:14:26;;;;;;;16.02;8.38;;;;;;;8.20;100.00;102765.50;5085472;28;20044;-68
2022/10/19 08:16:51;;;;;;;12.05;7.53;;;;;;;8.38;100.00;102766.88;5077725;28;20040;-68
2022/10/19 08:19:17;;;;;;;22.27;10.00;;;;;;;8.48;100.00;102765.75;5079540;28;20059;-68
2022/10/19 08:21:45;;;;;;;20.10;9.95;;;;;;;8.50;100.00;102767.47;5074668;28;20092;-68
2022/10/19 08:24:13;;;;;;;16.27;7.65;;;;;;;8.78;100.00;102758.81;5068221;28;20044;-67
2022/10/19 08:26:39;;;;;;;11.38;7.38;;;;;;;9.06;100.00;102761.66;5077793;28;20118;-67
2022/10/19 08:29:14;;;;;;;15.48;7.28;;;;;;;9.29;100.00;102764.59;5074758;28;20036;-67
2022/10/19 08:31:41;;;;;;;12.65;7.20;;;;;;;9.41;100.00;102767.81;5070688;28;20033;-68
2022/10/19 08:34:07;;;;;;;21.02;7.10;;;;;;;9.44;100.00;102754.41;5075502;28;20718;-68
2022/10/19 08:36:34;;;;;;;18.48;6.97;;;;;;;9.57;100.00;102758.47;5075678;28;20071;-67
2022/10/19 08:39:00;;;;;;;14.50;6.05;;;;;;;9.69;100.00;102763.47;5071906;28;20036;-69
2022/10/19 08:41:39;;;;;;;12.02;6.32;;;;;;;9.80;100.00;102764.03;5076612;28;20456;-67
2022/10/19 08:44:26;;;;;;;12.73;5.43;;;;;;;9.96;100.00;102764.44;5089216;28;20051;-69
2022/10/19 08:47:22;;;;;;;11.93;4.88;;;;;;;10.16;100.00;102763.84;5069296;28;20055;-69
2022/10/19 08:49:48;;;;;;;17.88;7.00;;;;;;;10.42;100.00;102751.53;5066831;28;20392;-67
2022/10/19 08:52:19;;;;;;;9.45;5.18;;;;;;;10.55;100.00;102744.88;5086885;28;20035;-68
2022/10/19 08:54:58;;;;;;;12.52;5.90;;;;;;;10.74;100.00;102739.78;5075062;28;20039;-68
2022/10/19 08:57:39;;;;;;;8.45;4.53;;;;;;;10.78;100.00;102739.63;5078063;28;20485;-69
2022/10/19 09:00:18;;;;;;;14.20;5.95;;;;;;;10.95;100.00;102743.53;5077820;28;20521;-68
2022/10/19 09:02:52;;;;;;;7.82;4.85;;;;;;;10.97;100.00;102739.88;5078065;28;20480;-69
2022/10/19 09:05:21;;;;;;;10.02;4.68;;;;;;;11.05;100.00;102739.63;5071532;28;20575;-69
2022/10/19 09:07:52;;;;;;;13.32;4.35;;;;;;;11.05;100.00;102731.63;5071703;28;20090;-67
2022/10/19 09:10:24;;;;;;;9.50;4.85;;;;;;;11.27;100.00;102727.25;5074778;28;20062;-67
2022/10/19 09:13:01;;;;;;;8.13;4.88;;;;;;;11.08;100.00;102720.81;5078733;28;20043;-67
2022/10/19 09:15:37;;;;;;;10.40;5.15;;;;;;;11.17;100.00;102723.16;5078682;28;20086;-68
2022/10/19 09:18:02;;;;;;;7.90;4.50;;;;;;;11.27;100.00;102729.91;5070226;28;20896;-68
2022/10/19 09:20:38;;;;;;;13.27;5.10;;;;;;;11.42;100.00;102725.81;5077995;28;20066;-68
2022/10/19 09:23:37;;;;;;;8.05;4.07;;;;;;;11.42;100.00;102725.81;5069452;28;20044;-69
2022/10/19 09:26:09;;;;;;;9.00;4.13;;;;;;;11.63;100.00;102722.34;5068888;28;20079;-67
2022/10/19 09:28:41;;;;;;;;;;;;;;;11.58;100.00;102705.63;5100394;28;20036;-69
2022/10/19 09:31:15;;;;;;;9.02;3.63;;;;;;;11.75;100.00;102717.50;5072894;28;20522;-67
2022/10/19 09:33:42;;;;;;;8.43;3.55;;;;;;;11.68;100.00;102717.69;5077130;28;20138;-68
2022/10/19 09:36:08;;;;;;;6.68;3.75;;;;;;;11.83;100.00;102708.25;5078885;28;20117;-68
2022/10/19 09:38:34;;;;;;;9.10;3.70;;;;;;;12.02;100.00;102704.88;5077346;28;20036;-68
2022/10/19 09:41:14;;;;;;;9.88;3.60;;;;;;;12.16;100.00;102697.19;5074182;28;20035;-67
2022/10/19 09:43:49;;;;;;;7.35;3.50;;;;;;;12.05;100.00;102694.94;5076924;28;20138;-68
2022/10/19 09:46:26;;;;;;;7.75;4.00;;;;;;;12.44;100.00;102689.75;5092331;28;20080;-69
2022/10/19 09:48:52;;;;;;;5.68;2.90;;;;;;;12.44;100.00;102683.53;5075813;28;20520;-67
2022/10/19 09:51:18;;;;;;;8.52;3.50;;;;;;;12.78;100.00;102684.78;5073097;28;20111;-68
2022/10/19 09:53:54;;;;;;;5.80;2.70;;;;;;;12.50;100.00;102680.63;5073251;28;20032;-68
2022/10/19 09:56:25;;;;;;;9.55;3.38;;;;;;;12.80;100.00;102688.25;5077125;28;20055;-68
2022/10/19 09:58:56;;;;;;;17.85;4.10;;;;;;;12.54;100.00;102684.00;5070373;28;20043;-68
2022/10/19 10:01:37;;;;;;;10.93;3.75;;;;;;;12.64;100.00;102683.56;5076637;28;20472;-67
2022/10/19 10:04:14;;;;;;;7.28;2.90;;;;;;;12.86;100.00;102685.34;5075972;28;20049;-68
2022/10/19 10:06:42;;;;;;;2.70;2.30;;;;;;;12.62;100.00;102685.44;5080753;28;20437;-69
2022/10/19 10:09:18;;;;;;;10.35;2.70;;;;;;;12.52;97.67;102681.41;5081487;28;20434;-67
2022/10/19 10:11:47;;;;;;;9.68;3.63;;;;;;;12.56;96.79;102672.31;5081718;28;20044;-68
2022/10/19 10:14:27;;;;;;;5.72;2.30;;;;;;;12.54;96.42;102665.28;5081229;28;20058;-67
2022/10/19 10:17:05;;;;;;;6.40;2.22;;;;;;;12.63;98.48;102659.53;5081761;28;20048;-67
2022/10/19 10:19:34;;;;;;;7.47;2.15;;;;;;;12.50;94.54;102658.31;5077621;28;20193;-67
2022/10/19 10:22:02;;;;;;;5.72;1.90;;;;;;;12.44;93.75;102648.75;5078741;28;20086;-68
2022/10/19 10:24:32;;;;;;;3.15;1.48;;;;;;;12.35;94.22;102652.69;5070449;28;20051;-67
2022/10/19 10:26:59;;;;;;;5.35;1.08;;;;;;;12.47;92.48;102653.09;5075810;28;20495;-69
2022/10/19 10:29:31;;;;;;;4.47;1.02;;;;;;;12.74;92.69;102659.94;5075565;28;20035;-67
2022/10/19 10:32:16;;;;;;;4.00;0.90;;;;;;;12.70;90.59;102651.19;5075552;28;20532;-68
2022/10/19 10:34:43;;;;;;;6.82;1.10;;;;;;;12.88;91.70;102648.63;5071793;28;20030;-67
2022/10/19 10:37:28;;;;;;;5.10;1.23;;;;;;;13.19;90.67;102646.31;5079890;28;20131;-67
2022/10/19 10:39:56;;;;;;;4.90;1.35;;;;;;;12.97;87.78;102642.88;5079658;28;20540;-68
2022/10/19 10:42:29;;;;;;;4.75;1.30;;;;;;;13.06;87.67;102641.59;5075756;28;20040;-67
2022/10/19 10:44:55;;;;;;;2.67;1.40;;;;;;;13.15;90.21;102642.06;5079321;28;20130;-68
2022/10/19 10:47:21;;;;;;;4.28;1.35;;;;;;;13.19;86.74;102643.63;5077332;28;20036;-67
2022/10/19 10:49:56;;;;;;;2.58;1.20;;;;;;;13.14;87.20;102651.00;5077504;28;20044;-68
2022/10/19 10:52:24;;;;;;;4.38;2.45;;;;;;;13.24;88.52;102654.19;5074144;28;20528;-67
2022/10/19 10:55:15;;;;;;;4.45;1.30;;;;;;;13.39;86.69;102649.94;5064840;28;20064;-68
2022/10/19 10:57:46;;;;;;;4.47;1.60;;;;;;;13.14;87.08;102651.00;5081124;28;20088;-68
2022/10/19 11:00:19;;;;;;;9.13;2.22;;;;;;;13.29;86.21;102652.16;5093613;28;20477;-68
2022/10/19 11:02:53;;;;;;;5.18;1.50;;;;;;;13.32;86.39;102635.09;5070470;28;20043;-68
2022/10/19 11:05:27;;;;;;;9.02;1.42;;;;;;;13.34;86.78;102635.88;5078105;28;20655;-67
2022/10/19 11:07:59;;;;;;;10.57;1.77;;;;;;;13.46;89.02;102632.66;5087892;28;20939;-69
2022/10/19 11:10:42;;;;;;;3.42;1.88;;;;;;;13.49;87.24;102635.16;5071931;28;20040;-69
2022/10/19 11:13:16;;;;;;;5.22;1.92;;;;;;;13.58;90.24;102624.00;5077253;28;20040;-68
2022/10/19 11:16:01;;;;;;;15.30;2.50;;;;;;;13.36;85.91;102621.47;5080602;28;20043;-68
2022/10/19 11:18:46;;;;;;;8.25;1.45;;;;;;;13.42;86.67;102606.94;5079614;28;20032;-68
2022/10/19 11:21:22;;;;;;;8.43;1.67;;;;;;;13.43;87.26;102606.84;5067966;28;20042;-67
2022/10/19 11:24:21;;;;;;;2.42;1.27;;;;;;;13.53;88.41;102588.53;5092932;28;20059;-67
2022/10/19 11:27:00;;;;;;;8.05;1.77;;;;;;;13.57;84.81;102584.75;5069659;28;20052;-68
2022/10/19 11:29:46;;;;;;;10.18;1.40;;;;;;;13.55;84.32;102586.63;5074507;28;20381;-67
2022/10/19 11:32:43;;;;;;;2.45;1.52;;;;;;;13.58;83.91;102570.41;5073815;28;20421;-67